Time;durP1;ratioP1;P1;durP2;ratioP2;P2;SDS_P1;SDS_P2;PMS_P1;PMS_P2;Temp;Humidity;BMP_temperature;BMP_pressure;BME280_temperature;BME280_humidity;BME280_pressure;Samples;Min_cycle;Max_cycle;Signal;HPM_P1;HPM_P2
2024/03/01 00:01:37;;;;;;;55.53;24.77;;;;;;;3.38;82.74;97838.25;4992768;28;20104;-83
2024/03/01 00:04:02;;;;;;;56.65;26.27;;;;;;;3.00;83.20;97844.72;5014762;28;20559;-84
2024/03/01 00:06:27;;;;;;;53.25;25.02;;;;;;;3.47;83.68;97836.91;5031576;28;20037;-84
2024/03/01 00:08:53;;;;;;;54.05;24.05;;;;;;;3.30;83.76;97820.94;5026828;28;20083;-84
2024/03/01 00:11:19;;;;;;;53.90;25.50;;;;;;;3.16;83.33;97829.28;5026518;28;20044;-84
2024/03/01 00:13:44;;;;;;;65.60;27.75;;;;;;;2.79;83.95;97804.88;5026728;28;20029;-84
2024/03/01 00:16:10;;;;;;;51.78;25.25;;;;;;;2.71;84.91;97821.78;5020804;28;20040;-84
2024/03/01 00:18:35;;;;;;;53.35;24.50;;;;;;;3.33;84.37;97819.66;5008263;28;20068;-83
2024/03/01 00:21:00;;;;;;;48.50;23.02;;;;;;;3.52;82.56;97822.00;5024722;28;20378;-85
2024/03/01 00:23:29;;;;;;;53.97;24.70;;;;;;;3.29;82.15;97785.06;4990846;28;20457;-84
2024/03/01 00:25:55;;;;;;;49.60;23.50;;;;;;;3.38;82.57;97798.69;5022119;28;20041;-84
2024/03/01 00:28:20;;;;;;;52.17;25.40;;;;;;;3.67;81.87;97813.59;5002103;28;20067;-84
2024/03/01 00:30:46;;;;;;;48.75;24.27;;;;;;;3.44;82.12;97792.50;5019714;28;20050;-84
2024/03/01 00:33:11;;;;;;;57.08;25.05;;;;;;;3.58;82.02;97813.16;5023601;28;20034;-85
2024/03/01 00:35:37;;;;;;;56.72;26.00;;;;;;;3.46;82.19;97793.09;5025093;28;20892;-85
2024/03/01 00:38:03;;;;;;;48.75;25.02;;;;;;;3.72;81.76;97798.72;5007323;28;20048;-84
2024/03/01 00:40:28;;;;;;;48.20;24.73;;;;;;;3.30;81.30;97797.19;5008118;28;20068;-83
2024/03/01 00:42:53;;;;;;;46.28;24.15;;;;;;;3.51;81.48;97758.91;5007776;28;20056;-84
2024/03/01 00:45:19;;;;;;;55.20;25.45;;;;;;;3.83;81.33;97796.28;5024262;28;20057;-84
2024/03/01 00:47:50;;;;;;;50.92;24.88;;;;;;;3.30;81.33;97785.88;5024276;28;20041;-84
2024/03/01 00:50:19;;;;;;;54.78;25.85;;;;;;;3.30;83.11;97799.81;4990790;28;20160;-84
2024/03/01 00:52:45;;;;;;;56.63;25.30;;;;;;;2.24;85.96;97765.50;5028868;28;20503;-84
2024/03/01 00:55:10;;;;;;;54.58;25.38;;;;;;;2.50;85.27;97767.00;5028336;28;20033;-84
2024/03/01 00:57:35;;;;;;;51.83;25.15;;;;;;;3.09;83.28;97795.09;5030261;28;20038;-85
2024/03/01 01:00:01;;;;;;;48.60;24.90;;;;;;;3.63;82.41;97799.28;5024300;28;20039;-84
2024/03/01 01:02:27;;;;;;;54.72;28.20;;;;;;;3.64;81.04;97771.88;5027590;28;20026;-84
2024/03/01 01:04:52;;;;;;;49.80;25.10;;;;;;;3.73;81.23;97789.75;4996325;28;20079;-84
2024/03/01 01:07:19;;;;;;;53.97;24.98;;;;;;;3.75;80.64;97785.06;5011446;28;20034;-84
2024/03/01 01:09:45;;;;;;;50.90;24.40;;;;;;;2.80;82.91;97796.75;5013286;28;20072;-85
2024/03/01 01:12:11;;;;;;;49.35;25.15;;;;;;;3.53;82.26;97796.41;5028940;28;20037;-84
2024/03/01 01:14:36;;;;;;;51.00;23.40;;;;;;;3.83;80.35;97793.63;5025987;28;21923;-84
2024/03/01 01:17:01;;;;;;;50.95;24.33;;;;;;;3.71;80.38;97769.94;5009398;28;20105;-85
2024/03/01 01:19:27;;;;;;;49.20;23.17;;;;;;;3.88;80.88;97785.84;5024682;28;20115;-85
2024/03/01 01:21:52;;;;;;;48.78;23.88;;;;;;;3.78;80.06;97768.75;5019305;28;20068;-84
2024/03/01 01:24:18;;;;;;;56.92;23.92;;;;;;;3.80;80.42;97789.63;5006938;28;20034;-84
2024/03/01 01:26:43;;;;;;;50.10;24.45;;;;;;;3.59;80.35;97740.91;5024356;28;20041;-84
2024/03/01 01:29:09;;;;;;;56.95;27.13;;;;;;;3.69;80.68;97772.00;5020220;28;20095;-84
2024/03/01 01:31:34;;;;;;;57.83;26.65;;;;;;;3.54;80.51;97735.50;5021167;28;20029;-85
2024/03/01 01:33:59;;;;;;;60.67;24.05;;;;;;;3.59;80.44;97743.53;5021938;28;20041;-85
2024/03/01 01:36:25;;;;;;;60.22;26.75;;;;;;;3.67;80.80;97769.56;5024140;28;20116;-85
2024/03/01 01:38:50;;;;;;;62.30;27.05;;;;;;;3.43;80.72;97738.94;5025609;28;20041;-83
2024/03/01 01:41:16;;;;;;;55.63;25.13;;;;;;;3.38;81.16;97756.50;5029035;28;20037;-84
2024/03/01 01:43:43;;;;;;;55.83;23.85;;;;;;;3.37;80.78;97726.69;5019974;28;20077;-84
2024/03/01 01:46:12;;;;;;;47.95;24.67;;;;;;;3.61;81.10;97774.97;5026251;28;20041;-84
2024/03/01 01:48:38;;;;;;;46.58;23.17;;;;;;;3.58;81.16;97768.31;5026058;28;20117;-85
2024/03/01 01:51:04;;;;;;;52.55;24.83;;;;;;;3.46;80.93;97729.78;5025366;28;20026;-84
2024/03/01 01:53:31;;;;;;;53.17;24.85;;;;;;;3.54;80.70;97737.34;5029043;28;20464;-85
2024/03/01 01:55:59;;;;;;;48.92;26.08;;;;;;;3.73;81.03;97765.22;5004674;28;20030;-84
2024/03/01 01:58:25;;;;;;;56.85;25.88;;;;;;;3.31;80.38;97713.63;5027185;28;20029;-84
2024/03/01 02:00:51;;;;;;;56.40;26.75;;;;;;;3.66;80.62;97754.78;5005944;28;20040;-84
2024/03/01 02:03:16;;;;;;;51.42;23.88;;;;;;;3.44;80.84;97727.38;5023073;28;20025;-84
2024/03/01 02:05:43;;;;;;;52.42;25.05;;;;;;;3.51;80.34;97733.34;5023303;28;20454;-84
2024/03/01 02:08:08;;;;;;;59.67;26.08;;;;;;;3.19;81.02;97692.53;5028349;28;20385;-84
2024/03/01 02:10:34;;;;;;;50.65;25.45;;;;;;;3.51;81.55;97735.19;5023331;28;20061;-85
2024/03/01 02:13:03;;;;;;;51.17;24.63;;;;;;;3.34;81.16;97718.44;5006093;28;20033;-84
2024/03/01 02:15:29;;;;;;;49.38;24.88;;;;;;;3.39;81.75;97729.91;5024207;28;20025;-85
2024/03/01 02:17:55;;;;;;;54.75;24.38;;;;;;;3.24;82.26;97710.28;5019119;28;20400;-85
2024/03/01 02:20:23;;;;;;;47.88;23.27;;;;;;;3.35;82.32;97723.47;5023690;28;20033;-83
2024/03/01 02:22:50;;;;;;;52.13;26.65;;;;;;;3.38;82.70;97719.59;5007223;28;20588;-83
2024/03/01 02:25:16;;;;;;;47.15;24.63;;;;;;;3.25;82.42;97693.47;5004244;28;20030;-84
2024/03/01 02:27:42;;;;;;;53.75;25.10;;;;;;;3.19;82.63;97710.97;5005559;28;20485;-83
2024/03/01 02:30:09;;;;;;;50.78;24.95;;;;;;;3.27;83.03;97713.28;5020123;28;20033;-83
2024/03/01 02:32:35;;;;;;;50.90;24.63;;;;;;;3.42;83.07;97699.63;5009492;28;20048;-84
2024/03/01 02:35:01;;;;;;;51.17;24.48;;;;;;;3.37;82.53;97688.97;5013800;28;20036;-84
2024/03/01 02:37:26;;;;;;;52.88;24.23;;;;;;;3.49;82.25;97702.97;5007123;28;20046;-84
2024/03/01 02:39:52;;;;;;;53.00;25.83;;;;;;;3.39;82.36;97692.16;5007052;28;20116;-84
2024/03/01 02:42:17;;;;;;;54.30;25.95;;;;;;;3.03;83.31;97675.59;5018758;28;20401;-83
2024/03/01 02:44:43;;;;;;;52.67;25.45;;;;;;;3.02;84.19;97658.16;5021027;28;20037;-83
2024/03/01 02:47:08;;;;;;;56.53;25.85;;;;;;;3.48;83.48;97694.25;5002264;28;20041;-84
2024/03/01 02:49:33;;;;;;;53.63;25.65;;;;;;;3.26;82.95;97673.94;5016889;28;20032;-83
2024/03/01 02:51:59;;;;;;;59.00;26.50;;;;;;;3.41;83.44;97695.38;5018293;28;20061;-84
2024/03/01 02:54:24;;;;;;;61.95;29.08;;;;;;;3.28;82.29;97653.44;5021311;28;20029;-85
2024/03/01 02:56:50;;;;;;;56.20;27.95;;;;;;;3.49;82.21;97695.03;5023556;28;20033;-84
2024/03/01 02:59:16;;;;;;;50.85;25.42;;;;;;;3.21;82.66;97665.94;5021723;28;20025;-84
2024/03/01 03:01:41;;;;;;;53.80;26.80;;;;;;;2.87;82.67;97686.78;5006870;28;20958;-83
2024/03/01 03:04:07;;;;;;;53.95;26.30;;;;;;;3.46;82.53;97692.84;5012122;28;20029;-83
2024/03/01 03:06:32;;;;;;;52.55;26.00;;;;;;;3.30;82.25;97678.53;4984228;28;20405;-83
2024/03/01 03:08:57;;;;;;;54.22;25.77;;;;;;;3.41;81.22;97704.09;4997024;28;20045;-83
2024/03/01 03:11:25;;;;;;;56.47;27.05;;;;;;;3.08;81.81;97648.50;5016938;28;20079;-84
2024/03/01 03:13:51;;;;;;;54.55;27.15;;;;;;;3.45;82.36;97697.31;5013751;28;20029;-84
2024/03/01 03:16:16;;;;;;;58.58;25.08;;;;;;;3.38;82.30;97686.13;5018151;28;20029;-84
2024/03/01 03:18:42;;;;;;;57.00;25.85;;;;;;;3.11;82.06;97661.25;4992642;28;20116;-83
2024/03/01 03:21:07;;;;;;;58.63;26.42;;;;;;;3.18;82.59;97656.66;5026766;28;20056;-84
2024/03/01 03:23:33;;;;;;;54.75;28.10;;;;;;;3.28;82.17;97669.25;5005263;28;20116;-84
2024/03/01 03:25:59;;;;;;;50.88;24.90;;;;;;;3.41;82.63;97683.00;5000580;28;20033;-85
2024/03/01 03:28:24;;;;;;;54.03;26.90;;;;;;;3.25;82.08;97653.91;5015734;28;20904;-83
2024/03/01 03:30:50;;;;;;;48.80;25.45;;;;;;;2.80;82.46;97590.44;5002578;28;20158;-83
2024/03/01 03:33:15;;;;;;;54.28;24.88;;;;;;;3.14;81.91;97654.72;5012654;28;20029;-82
2024/03/01 03:35:41;;;;;;;57.83;25.48;;;;;;;3.41;81.70;97690.09;5013279;28;20036;-84
2024/03/01 03:38:06;;;;;;;47.88;25.70;;;;;;;3.25;82.14;97682.91;5015748;28;20173;-84
2024/03/01 03:40:31;;;;;;;56.15;24.50;;;;;;;3.18;82.59;97695.41;5014645;28;20052;-84
2024/03/01 03:42:57;;;;;;;54.00;24.85;;;;;;;3.17;82.39;97697.22;4995366;28;20025;-84
2024/03/01 03:45:22;;;;;;;57.08;25.77;;;;;;;3.29;82.21;97713.06;4995664;28;20045;-84
2024/03/01 03:47:47;;;;;;;59.38;27.38;;;;;;;3.31;81.48;97700.44;5014752;28;20030;-85
2024/03/01 03:50:13;;;;;;;54.35;25.30;;;;;;;3.22;81.68;97688.63;5017692;28;20037;-84
2024/03/01 03:52:38;;;;;;;55.20;26.42;;;;;;;3.33;82.33;97717.63;5022207;28;20393;-84
2024/03/01 03:55:07;;;;;;;59.38;27.33;;;;;;;3.32;82.23;97702.06;5027494;28;20120;-84
2024/03/01 03:57:33;;;;;;;57.35;26.25;;;;;;;3.18;82.34;97684.84;5001170;28;20527;-84
2024/03/01 03:59:59;;;;;;;60.78;28.33;;;;;;;3.26;82.20;97693.22;4992999;28;20062;-83
2024/03/01 04:02:25;;;;;;;55.63;25.52;;;;;;;3.34;82.00;97700.78;5004217;28;20069;-84
2024/03/01 04:04:50;;;;;;;63.45;27.50;;;;;;;3.34;82.02;97697.34;5016457;28;20067;-84
2024/03/01 04:07:16;;;;;;;57.17;25.90;;;;;;;3.23;82.13;97695.53;5004387;28;20095;-84
2024/03/01 04:09:41;;;;;;;58.42;26.55;;;;;;;3.24;81.24;97697.91;5011196;28;20048;-83
2024/03/01 04:12:07;;;;;;;56.55;28.00;;;;;;;3.14;82.01;97666.06;5023024;28;20044;-83
2024/03/01 04:14:33;;;;;;;53.75;25.45;;;;;;;2.91;83.07;97706.38;5002559;28;20063;-85
2024/03/01 04:16:58;;;;;;;63.03;27.77;;;;;;;3.01;82.61;97667.06;5003560;28;20048;-84
2024/03/01 04:19:24;;;;;;;56.33;26.90;;;;;;;3.22;81.96;97701.81;5004221;28;20041;-83
2024/03/01 04:21:52;;;;;;;58.33;26.88;;;;;;;3.24;81.81;97713.75;5013780;28;20485;-82
2024/03/01 04:24:18;;;;;;;55.83;26.20;;;;;;;3.21;82.66;97721.31;5016953;28;20116;-83
2024/03/01 04:26:43;;;;;;;50.47;24.80;;;;;;;3.19;82.07;97705.72;5016250;28;20112;-84
2024/03/01 04:29:09;;;;;;;62.28;28.27;;;;;;;2.59;82.50;97620.78;5024472;28;20535;-84
2024/03/01 04:31:35;;;;;;;57.75;29.33;;;;;;;3.26;82.10;97716.13;5017018;28;20026;-84
2024/03/01 04:34:04;;;;;;;53.38;24.98;;;;;;;3.07;82.87;97706.75;5017373;28;20029;-84
2024/03/01 04:36:29;;;;;;;52.65;26.30;;;;;;;3.21;82.73;97718.69;5021828;28;20072;-84
2024/03/01 04:38:55;;;;;;;50.75;26.33;;;;;;;3.07;82.73;97685.66;5018269;28;20481;-83
2024/03/01 04:41:20;;;;;;;56.38;26.73;;;;;;;3.22;81.72;97688.63;5021745;28;20074;-84
2024/03/01 04:43:46;;;;;;;60.15;27.38;;;;;;;3.11;82.11;97726.34;4988348;28;20053;-84
2024/03/01 04:46:12;;;;;;;53.75;25.63;;;;;;;3.14;82.17;97720.63;5020630;28;20033;-84
2024/03/01 04:48:37;;;;;;;54.90;24.25;;;;;;;2.82;82.27;97680.59;5003453;28;20025;-84
2024/03/01 04:51:12;;;;;;;58.80;27.15;;;;;;;3.14;82.52;97718.78;5023688;28;20451;-84
2024/03/01 04:53:38;;;;;;;55.05;26.42;;;;;;;3.09;83.15;97720.50;5024532;28;20033;-83
2024/03/01 04:56:04;;;;;;;51.92;25.00;;;;;;;2.89;83.45;97691.81;5020068;28;20040;-84
2024/03/01 04:58:29;;;;;;;51.10;26.58;;;;;;;2.89;83.44;97711.09;5027974;28;20029;-84
2024/03/01 05:00:55;;;;;;;54.47;27.38;;;;;;;2.91;84.19;97718.75;5007422;28;20045;-84
2024/03/01 05:03:20;;;;;;;69.65;28.08;;;;;;;2.96;83.90;97714.41;5024644;28;20033;-84
2024/03/01 05:05:46;;;;;;;55.17;25.13;;;;;;;2.91;84.37;97713.47;5024913;28;21277;-84
2024/03/01 05:08:11;;;;;;;57.80;26.48;;;;;;;2.92;84.53;97723.81;5024283;28;20947;-83
2024/03/01 05:10:37;;;;;;;56.58;26.80;;;;;;;2.98;84.30;97716.81;5014766;28;20036;-83
2024/03/01 05:13:02;;;;;;;59.83;27.40;;;;;;;2.96;84.36;97713.63;5007514;28;20491;-84
2024/03/01 05:15:28;;;;;;;57.42;28.45;;;;;;;2.96;84.01;97697.81;5005393;28;20030;-83
2024/03/01 05:17:53;;;;;;;62.85;28.55;;;;;;;2.96;84.91;97714.41;5024093;28;20036;-85
2024/03/01 05:20:19;;;;;;;59.08;27.02;;;;;;;3.07;84.15;97726.00;5018768;28;20109;-83
2024/03/01 05:22:44;;;;;;;55.03;27.02;;;;;;;2.91;83.12;97674.75;5009216;28;20480;-83
2024/03/01 05:25:16;;;;;;;56.63;26.48;;;;;;;3.16;83.57;97722.00;5021685;28;20057;-85
2024/03/01 05:27:48;;;;;;;52.75;25.30;;;;;;;3.06;83.36;97707.78;5020325;28;20662;-83
2024/03/01 05:30:17;;;;;;;57.47;27.23;;;;;;;3.18;83.10;97722.56;5025407;28;20029;-86
2024/03/01 05:32:43;;;;;;;54.15;28.30;;;;;;;2.80;83.99;97690.56;5020945;28;20026;-86
2024/03/01 05:35:09;;;;;;;63.13;26.55;;;;;;;3.10;83.39;97730.00;5004673;28;20087;-84
2024/03/01 05:37:34;;;;;;;55.83;25.77;;;;;;;3.15;83.10;97727.47;5001538;28;20032;-83
2024/03/01 05:40:03;;;;;;;59.22;29.13;;;;;;;3.18;83.34;97735.75;5023431;28;20029;-84
2024/03/01 05:42:28;;;;;;;50.92;27.80;;;;;;;3.04;82.99;97714.06;5020861;28;20045;-84
2024/03/01 05:44:53;;;;;;;58.92;26.80;;;;;;;3.07;83.31;97720.72;5024089;28;20044;-84
2024/03/01 05:47:19;;;;;;;59.92;28.60;;;;;;;3.04;83.07;97721.16;5008598;28;20029;-83
2024/03/01 05:49:44;;;;;;;58.75;27.55;;;;;;;3.15;82.91;97730.13;5022201;28;20121;-83
2024/03/01 05:52:09;;;;;;;56.20;27.30;;;;;;;3.20;82.77;97738.16;5021721;28;20037;-83
2024/03/01 05:54:35;;;;;;;63.88;28.25;;;;;;;3.09;82.66;97723.94;5007767;28;20048;-84
2024/03/01 05:57:01;;;;;;;56.72;26.92;;;;;;;3.12;83.04;97734.03;5011472;28;20060;-84
2024/03/01 05:59:26;;;;;;;57.20;27.13;;;;;;;3.03;83.67;97735.41;5028837;28;20030;-83
2024/03/01 06:01:53;;;;;;;56.55;26.63;;;;;;;2.89;83.94;97716.34;5009806;28;20095;-84
2024/03/01 06:04:19;;;;;;;58.03;27.30;;;;;;;2.69;84.51;97705.31;5009422;28;20120;-83
2024/03/01 06:06:45;;;;;;;59.25;26.58;;;;;;;2.82;84.64;97720.09;5027850;28;20124;-83
2024/03/01 06:09:11;;;;;;;60.92;26.90;;;;;;;2.76;83.98;97713.94;5014167;28;20385;-83
2024/03/01 06:11:37;;;;;;;65.55;28.15;;;;;;;2.65;84.20;97704.16;5008102;28;20083;-85
2024/03/01 06:14:02;;;;;;;60.17;26.85;;;;;;;2.75;84.62;97733.38;5026447;28;20068;-85
2024/03/01 06:16:28;;;;;;;62.95;28.73;;;;;;;2.98;84.35;97743.97;5028960;28;20025;-85
2024/03/01 06:18:55;;;;;;;57.17;26.80;;;;;;;2.86;85.35;97742.38;4993872;28;20041;-85
2024/03/01 06:21:20;;;;;;;56.80;27.60;;;;;;;2.82;86.08;97752.53;5016737;28;20112;-84
2024/03/01 06:23:46;;;;;;;64.25;28.13;;;;;;;2.59;85.77;97726.16;5032684;28;20052;-85
2024/03/01 06:26:13;;;;;;;57.22;27.92;;;;;;;2.65;85.89;97735.78;5035177;28;20544;-85
2024/03/01 06:28:38;;;;;;;60.88;28.70;;;;;;;2.54;86.32;97712.03;5019942;28;20442;-85
2024/03/01 06:31:04;;;;;;;62.42;30.05;;;;;;;2.73;85.98;97738.06;5020634;28;20052;-85
2024/03/01 06:33:30;;;;;;;63.20;29.75;;;;;;;2.63;86.34;97724.66;5037256;28;20056;-84
2024/03/01 06:35:55;;;;;;;66.38;28.42;;;;;;;2.87;86.08;97750.03;5031765;28;20441;-84
2024/03/01 06:38:21;;;;;;;69.18;29.75;;;;;;;2.83;85.86;97742.81;5037808;28;20022;-85
2024/03/01 06:40:46;;;;;;;67.72;30.88;;;;;;;2.77;85.79;97733.19;5005166;28;20034;-85
2024/03/01 06:43:11;;;;;;;63.88;31.65;;;;;;;2.87;86.01;97743.94;5022930;28;20380;-84
2024/03/01 06:45:37;;;;;;;60.22;28.20;;;;;;;2.90;85.98;97736.41;5023047;28;20029;-85
2024/03/01 06:48:03;;;;;;;68.07;29.75;;;;;;;2.89;86.46;97761.16;5046251;28;20056;-85
2024/03/01 06:50:28;;;;;;;67.82;31.15;;;;;;;2.67;85.83;97698.66;5046177;28;20053;-85
2024/03/01 06:52:54;;;;;;;77.10;32.58;;;;;;;2.56;86.08;97702.88;5038452;28;20075;-85
2024/03/01 06:55:20;;;;;;;64.93;31.45;;;;;;;2.64;85.80;97715.75;5015375;28;20509;-85
2024/03/01 06:57:46;;;;;;;69.70;32.17;;;;;;;2.39;86.28;97683.50;5041557;28;20048;-85
2024/03/01 07:00:12;;;;;;;62.97;28.52;;;;;;;2.93;86.88;97772.84;5037308;28;20048;-85
2024/03/01 07:02:37;;;;;;;66.07;30.17;;;;;;;2.77;86.72;97747.16;5041643;28;20036;-85
2024/03/01 07:05:03;;;;;;;70.28;31.23;;;;;;;2.57;86.92;97730.84;5037129;28;20033;-84
2024/03/01 07:07:30;;;;;;;66.28;29.80;;;;;;;2.28;87.27;97687.69;5032976;28;20541;-85
2024/03/01 07:09:55;;;;;;;69.00;31.48;;;;;;;2.82;87.44;97749.91;5019622;28;20022;-84
2024/03/01 07:12:21;;;;;;;69.45;32.25;;;;;;;2.53;86.94;97703.34;5039652;28;20028;-85
2024/03/01 07:14:46;;;;;;;68.63;30.88;;;;;;;2.94;87.94;97774.47;5039251;28;20029;-85
2024/03/01 07:17:11;;;;;;;77.45;34.92;;;;;;;2.75;87.71;97743.91;5042694;28;20111;-85
2024/03/01 07:19:37;;;;;;;67.65;31.60;;;;;;;2.55;88.03;97708.38;5042326;28;20495;-85
2024/03/01 07:22:02;;;;;;;65.88;30.77;;;;;;;2.23;87.76;97639.38;5041674;28;20095;-84
2024/03/01 07:24:28;;;;;;;73.28;31.38;;;;;;;3.12;86.91;97754.31;5039416;28;20036;-85
2024/03/01 07:26:53;;;;;;;69.07;31.88;;;;;;;3.32;87.04;97781.94;5002963;28;20053;-85
2024/03/01 07:29:18;;;;;;;72.10;32.72;;;;;;;3.33;87.52;97788.84;5034436;28;20032;-84
2024/03/01 07:31:44;;;;;;;67.00;32.33;;;;;;;3.20;88.16;97802.22;5021241;28;20118;-85
2024/03/01 07:34:09;;;;;;;66.03;31.63;;;;;;;3.26;87.74;97787.31;5017736;28;20381;-85
2024/03/01 07:36:34;;;;;;;77.32;35.05;;;;;;;2.56;87.90;97659.94;5033947;28;20409;-85
2024/03/01 07:39:00;;;;;;;78.97;31.42;;;;;;;3.32;88.48;97775.88;5015707;28;20038;-86
2024/03/01 07:41:28;;;;;;;64.43;31.58;;;;;;;3.59;86.70;97788.38;5029762;28;20111;-85
2024/03/01 07:43:53;;;;;;;72.00;34.33;;;;;;;3.16;86.29;97718.56;5032763;28;20034;-85
2024/03/01 07:46:19;;;;;;;76.38;32.88;;;;;;;2.97;87.08;97715.22;5018260;28;20040;-85
2024/03/01 07:48:45;;;;;;;69.63;32.10;;;;;;;3.42;87.09;97757.66;5026571;28;20026;-85
2024/03/01 07:51:11;;;;;;;77.30;33.75;;;;;;;3.32;87.23;97736.34;5029102;28;20032;-85
2024/03/01 07:53:39;;;;;;;72.18;33.08;;;;;;;3.54;88.13;97783.00;5028869;28;20075;-85
2024/03/01 07:56:05;;;;;;;77.10;35.63;;;;;;;3.52;87.71;97755.22;5029518;28;20036;-85
2024/03/01 07:58:34;;;;;;;79.32;35.33;;;;;;;3.64;87.60;97777.16;4993802;28;20519;-85
2024/03/01 08:01:01;;;;;;;74.75;34.17;;;;;;;3.52;87.80;97763.94;5008907;28;20040;-84
2024/03/01 08:03:26;;;;;;;67.95;32.10;;;;;;;3.62;88.37;97769.47;5029531;28;20095;-84
2024/03/01 08:05:51;;;;;;;75.03;32.80;;;;;;;3.51;88.65;97756.28;5029261;28;20432;-85
2024/03/01 08:08:35;;;;;;;68.00;32.53;;;;;;;3.77;88.62;97776.91;5012942;28;20042;-85
2024/03/01 08:11:00;;;;;;;74.72;34.20;;;;;;;3.69;88.51;97766.72;5030805;28;20025;-85
2024/03/01 08:13:26;;;;;;;73.97;32.88;;;;;;;3.76;88.64;97762.09;5009617;28;20037;-85
2024/03/01 08:15:51;;;;;;;67.30;31.25;;;;;;;3.62;87.31;97719.34;5019568;28;20036;-85
2024/03/01 08:18:21;;;;;;;63.85;33.03;;;;;;;3.84;87.62;97742.47;5036881;28;20033;-85
2024/03/01 08:20:55;;;;;;;70.60;34.47;;;;;;;4.13;87.19;97773.19;5014991;28;20519;-84
2024/03/01 08:23:20;;;;;;;67.65;34.17;;;;;;;4.14;88.13;97754.47;5030204;28;20036;-84
2024/03/01 08:25:46;;;;;;;70.22;33.38;;;;;;;3.95;88.74;97736.38;5040301;28;20400;-84
2024/03/01 08:28:16;;;;;;;70.65;34.25;;;;;;;4.15;89.88;97763.97;5022155;28;20041;-84
2024/03/01 08:30:44;;;;;;;81.50;34.90;;;;;;;4.36;89.37;97762.53;5030745;28;20061;-84
2024/03/01 08:33:15;;;;;;;76.10;35.55;;;;;;;4.21;90.24;97759.59;5029202;28;20500;-85
2024/03/01 08:35:41;;;;;;;68.63;32.25;;;;;;;4.08;90.09;97729.00;5029390;28;20052;-85
2024/03/01 08:38:49;;;;;;;70.53;31.80;;;;;;;4.32;89.91;97782.53;4996557;28;20029;-85
2024/03/01 08:41:14;;;;;;;68.05;32.85;;;;;;;4.21;89.44;97720.00;5031991;28;20033;-84
2024/03/01 08:43:42;;;;;;;64.07;32.72;;;;;;;4.42;91.08;97772.97;5012726;28;20041;-84
2024/03/01 08:46:22;;;;;;;72.80;35.95;;;;;;;4.17;90.82;97746.06;5031886;28;20086;-84
2024/03/01 08:48:48;;;;;;;78.20;35.22;;;;;;;4.23;90.95;97741.69;5037485;28;20030;-84
2024/03/01 08:51:13;;;;;;;70.82;33.78;;;;;;;4.27;89.88;97725.13;5022699;28;20041;-84
2024/03/01 08:53:56;;;;;;;68.13;35.53;;;;;;;4.06;89.81;97699.41;5036175;28;20063;-85
2024/03/01 08:56:23;;;;;;;78.82;35.67;;;;;;;4.61;89.57;97765.63;5034699;28;20097;-84
2024/03/01 08:58:49;;;;;;;74.53;34.58;;;;;;;4.20;89.37;97713.91;5035404;28;20496;-85
2024/03/01 09:01:39;;;;;;;73.00;35.63;;;;;;;4.61;90.44;97786.00;5035250;28;20060;-84
2024/03/01 09:04:17;;;;;;;67.93;32.20;;;;;;;4.72;88.67;97779.88;5042685;28;20025;-85
2024/03/01 09:06:42;;;;;;;70.07;34.08;;;;;;;4.75;89.05;97766.16;5029972;28;20434;-88
2024/03/01 09:09:19;;;;;;;71.75;34.67;;;;;;;4.85;88.15;97761.84;5014960;28;20029;-88
2024/03/01 09:11:44;;;;;;;68.50;33.03;;;;;;;4.98;87.56;97771.34;5033535;28;20021;-87
2024/03/01 09:14:25;;;;;;;77.32;36.40;;;;;;;4.89;89.49;97768.25;5027766;28;20037;-88
2024/03/01 09:16:51;;;;;;;70.95;33.28;;;;;;;4.96;87.89;97753.06;5031309;28;20036;-87
2024/03/01 09:19:24;;;;;;;71.20;35.78;;;;;;;5.10;89.30;97764.94;5040750;28;20383;-88
2024/03/01 09:21:49;;;;;;;65.10;34.50;;;;;;;5.02;87.74;97740.72;5051975;28;20075;-88
2024/03/01 09:24:16;;;;;;;68.70;34.53;;;;;;;5.16;89.07;97747.28;5038434;28;20033;-88
2024/03/01 09:26:42;;;;;;;70.20;34.92;;;;;;;5.26;90.58;97756.19;5037457;28;20538;-87
2024/03/01 09:29:22;;;;;;;73.45;36.33;;;;;;;5.31;90.32;97766.84;5036194;28;20025;-88
2024/03/01 09:31:48;;;;;;;62.85;31.15;;;;;;;5.42;87.09;97754.56;5029822;28;20037;-87
2024/03/01 09:34:16;;;;;;;66.93;32.08;;;;;;;5.33;86.81;97727.72;5029156;28;20555;-87
2024/03/01 09:36:42;;;;;;;79.25;38.80;;;;;;;5.04;89.38;97689.22;5032684;28;20400;-87
2024/03/01 09:39:11;;;;;;;63.15;33.85;;;;;;;5.68;86.59;97769.78;5042283;28;20061;-87
2024/03/01 09:42:03;;;;;;;64.88;35.55;;;;;;;5.66;87.98;97763.91;5016365;28;20041;-88
2024/03/01 09:44:34;;;;;;;64.32;30.88;;;;;;;5.56;87.92;97752.41;5034974;28;20017;-86
2024/03/01 09:47:16;;;;;;;60.25;32.78;;;;;;;5.64;87.91;97754.63;5027747;28;20037;-88
2024/03/01 09:49:50;;;;;;;64.78;32.65;;;;;;;5.80;87.95;97749.31;5029391;28;20079;-87
2024/03/01 09:52:48;;;;;;;63.63;31.92;;;;;;;5.81;88.40;97750.91;5033295;28;20142;-87
2024/03/01 09:55:33;;;;;;;71.70;33.28;;;;;;;5.84;88.67;97754.94;5029980;28;20034;-87
2024/03/01 09:58:19;;;;;;;62.60;32.72;;;;;;;5.86;88.82;97750.19;5027431;28;20424;-88
2024/03/01 10:01:05;;;;;;;67.68;32.30;;;;;;;6.34;89.42;97749.44;5033246;28;20063;-88
2024/03/01 10:03:46;;;;;;;82.72;34.17;;;;;;;6.10;90.24;97756.06;5032558;28;20064;-87
2024/03/01 10:06:39;;;;;;;59.55;30.83;;;;;;;5.89;89.55;97700.22;5040477;28;20021;-88
2024/03/01 10:09:20;;;;;;;61.75;32.50;;;;;;;6.39;88.76;97731.78;5035435;28;20060;-88
2024/03/01 10:12:06;;;;;;;64.05;32.65;;;;;;;6.63;89.41;97750.84;5039392;28;20025;-88
2024/03/01 10:14:43;;;;;;;63.92;32.35;;;;;;;6.71;89.08;97745.88;5035354;28;20030;-87
2024/03/01 10:17:39;;;;;;;71.65;33.22;;;;;;;7.20;87.24;97743.94;5030784;28;20132;-88
2024/03/01 10:20:29;;;;;;;62.00;32.90;;;;;;;7.04;86.56;97752.00;5015884;28;20030;-87
2024/03/01 10:23:06;;;;;;;52.00;28.55;;;;;;;6.98;85.35;97743.22;5027301;28;20041;-87
2024/03/01 10:25:47;;;;;;;61.33;31.27;;;;;;;7.01;86.00;97739.28;5026477;28;20076;-86
2024/03/01 10:28:50;;;;;;;59.25;31.13;;;;;;;7.57;83.84;97749.25;5027824;28;20029;-88
2024/03/01 10:31:42;;;;;;;61.05;32.40;;;;;;;7.37;83.90;97736.63;5028553;28;20121;-86
2024/03/01 10:34:11;;;;;;;60.83;29.50;;;;;;;7.36;85.75;97748.28;5027817;28;20037;-88
2024/03/01 10:36:44;;;;;;;63.33;30.33;;;;;;;7.50;83.76;97733.53;5034984;28;20052;-87
2024/03/01 10:39:14;;;;;;;55.95;30.92;;;;;;;7.37;83.85;97747.25;5029623;28;20021;-87
2024/03/01 10:42:01;;;;;;;60.35;32.08;;;;;;;7.19;84.56;97744.19;5026823;28;20025;-87
2024/03/01 10:44:38;;;;;;;53.30;30.20;;;;;;;7.33;84.81;97743.50;5030171;28;20026;-86
2024/03/01 10:47:20;;;;;;;49.95;27.92;;;;;;;7.12;84.58;97698.50;5027607;28;20056;-87
2024/03/01 10:50:13;;;;;;;66.10;30.60;;;;;;;7.20;85.75;97733.34;5023193;28;20429;-88
2024/03/01 10:52:49;;;;;;;61.03;28.95;;;;;;;7.11;85.16;97726.88;5026367;28;20072;-85
2024/03/01 10:55:27;;;;;;;55.65;30.67;;;;;;;6.98;85.27;97707.94;5028474;28;20025;-87
2024/03/01 10:58:04;;;;;;;57.00;28.70;;;;;;;7.14;85.76;97729.00;5037515;28;20040;-87
2024/03/01 11:00:31;;;;;;;49.08;27.92;;;;;;;7.30;84.23;97719.31;5019502;28;20381;-87
2024/03/01 11:03:22;;;;;;;55.05;28.45;;;;;;;7.58;84.37;97740.22;5015655;28;20108;-88
2024/03/01 11:06:06;;;;;;;56.97;30.65;;;;;;;7.66;85.40;97741.59;5030668;28;20025;-87
2024/03/01 11:08:41;;;;;;;52.50;28.23;;;;;;;7.83;84.61;97742.22;5036666;28;20473;-87
2024/03/01 11:11:12;;;;;;;57.35;29.25;;;;;;;7.84;84.23;97736.66;5035923;28;20056;-88
2024/03/01 11:13:41;;;;;;;54.53;27.85;;;;;;;7.97;84.27;97746.03;5033699;28;20033;-87
2024/03/01 11:16:12;;;;;;;48.95;26.27;;;;;;;7.67;82.85;97690.06;5035888;28;20036;-88
2024/03/01 11:18:44;;;;;;;55.45;29.42;;;;;;;7.89;82.65;97757.13;5030742;28;20061;-87
2024/03/01 11:21:13;;;;;;;52.97;26.77;;;;;;;8.11;83.77;97755.94;5029703;28;20036;-87
2024/03/01 11:24:02;;;;;;;51.47;29.83;;;;;;;8.29;82.83;97757.34;5029058;28;20036;-88
2024/03/01 11:26:35;;;;;;;52.42;28.10;;;;;;;8.05;82.59;97751.66;5027746;28;20044;-87
2024/03/01 11:29:11;;;;;;;52.97;26.88;;;;;;;8.08;82.67;97745.81;5029671;28;20028;-87
2024/03/01 11:31:42;;;;;;;51.22;26.88;;;;;;;7.78;82.72;97719.09;5027426;28;20025;-88